CMD weather

Cullman Regional Airport-Folsom Field
Cullman, Alabama, United States

Public forecast

Using degrees Fahrenheit for public forecast. Weather courtesy of forecast.io.

Current aviation weather report (METAR) for Cullman Regional Airport-Folsom Field

Retrieved 2020/02/23 16:35 UTC (23 minutes ago):

KCMD 231635Z AUTO 20008KT 10SM CLR 09/M02 A3028 RMK AO2 T00941019

Closest aviation forecast (TAF) to Cullman Regional Airport-Folsom Field

Closest forecast is Huntsville International Carl T Jones Field, 22.5 nm (41.7 km) N. Retrieved 2020/02/23 12:22 UTC (5 hours ago):

TAF KHSV 231120Z 2312/2412 VRB04KT P6SM BKN250 FM231700 19007KT P6SM BKN120 FM240000 15005KT P6SM VCSH OVC070 PROB30 2402/2408 4SM -SHRA OVC025 FM240800 14012KT 6SM -SHRA OVC025